Fort Payne, AL

2:27 AM CDT on July 29, 2014 (GMT -0500)
Desoto Country Club (KALFORTP10) Elev 978 ft | 34.46 °N, 85.70 °W | Change Station

Current weather conditions updated 11 minutes ago

Clear
Clear
63.5 °F
Feels Like 63.5 °F
N
0.0
Wind Variable Wind from SE

Today is forecast to be Cooler than yesterday.

Today
High -- | Low -- °F
--% Chance of Precip.
Yesterday
High -- | Low -- °F
Precip. -- in
5:51 AM 7:46 PM
Waxing Crescent, 5% visible
Pressure 30.00 in
Visibility 10.0 miles
Clouds Clear
Dew Point 61 °F
Humidity 93%
Rainfall 0.00 in
Snow Depth Not available.
UV 0 out of 12
Pollen 5.00 out of 12
Air Quality Not available.
Flu Activity Not available.
METAR K4A9 290715Z AUTO 00000KT 10SM CLR 16/15 A3000 RMK AO2

More Conditions Fewer Conditions

Pressure 30.00 in
Visibility 10.0 miles
Clouds Clear
Dew Point 61 °F
Humidity 93%
Rainfall 0.00 in
Snow Depth Not available.
UV 0 out of 12
Pollen 5.00 out of 12
Air Quality Not available.
Flu Activity Not available.
METAR K4A9 290715Z AUTO 00000KT 10SM CLR 16/15 A3000 RMK AO2

More Conditions Fewer Conditions

10-Day Weather Forecast

Almanac

Astronomy

Jul. 29, 2014 Rise Set
Actual Time 5:51 AM CDT 7:46 PM CDT
Civil Twilight 5:23 AM CDT 8:14 PM CDT
Nautical Twilight 4:49 AM CDT 8:48 PM CDT
Astronomical Twilight 4:13 AM CDT 9:24 PM CDT
Moon 8:18 AM CDT 9:09 PM CDT
Length of Visible Light 14h 51m
Length of Day
13h 55m
Tomorrow will be 1m 33s shorter.
Waxing Crescent, 5% of the Moon is Illuminated
Today
Waxing Crescent
Aug 3
First Quarter
Aug 10
Full
Aug 17
Last Quarter
Aug 25
New

Today's Extremes

State Highs State Lows

Community

WunderPhotos

Upload Photos

1,738,651 photos uploaded!

Nearby

Snow Depth

Station Depth Elevation
No new snow has been reported.

Earthquake Activity

City Distance Mag. Time & Date
No recent earthquake activity has been reported nearby.
Minimum magnitude displayed is 2.5.

Coastal Water Temperatures

Place Temperature
No Stations Reporting

Nearby Weather Stations

Station Location Temp. Dew Point Humidity Wind Precip. Elev Updated Type
Desoto Country Club, Fort Payne, AL 63.5 °F 61 °F 93% SE  at  0.0 mph - / hr 978 ft 2:16 AM CDT Normal
Fischer, Fort Payne, AL 63.8 °F 60 °F 88% NNW  at  0.0 mph 0.00 in / hr 1552 ft 2:21 AM CDT Normal
Rock Creek Bloodhounds, Fort Payne, AL 60.8 °F 58 °F 90% NNW  at  0.0 mph 0.00 in / hr 1162 ft 2:27 AM CDT Rapid Fire
HCN VALLEY HEAD 1 SSW AL , Valley Head, AL 61 °F - - North  at  - 0.00 in / hr 1019 ft 1:35 AM CDT MADIS
The Ridges, Cedar Bluff, AL 59.9 °F 60 °F 99% North  at  0.0 mph 0.00 in / hr 639 ft 2:20 AM CDT Normal
HCN SCOTTSBORO AIRPORT 2 NE AL , Hollywood, AL 63 °F - - North  at  - 0.00 in / hr 636 ft 1:35 AM CDT MADIS

Show More Stations Show Fewer Stations